Cliftonville, Mississippi
Current Conditions -  °F | °C
As of 7:45 PM on Friday 21 Nov 2014 (Local Time) from KGTR Reporting Station
Broken Clouds Broken Clouds  
Wind Chill: 59°   Ceiling: 11000
Heat Index: 59°   Visibility: 10mi
Dew Point: 46°   Wind: 8mph
Humidity: 63%   Direction: 140°SE
Pressure: 30.3"   Gusts: NA
Location:  33.2136°N, 88.5275°W
Report Text: KGTR 220145Z 14007KT 10SM BKN110 15/08 A3030
Loading
Personal Weather Stations






























Interactive Weather Map New forecast layout! Learn more

10-Day Weather Forecast

Advertisements
Track Severe Weather on mobile